sensor_id;sensor_type;location;lat;lon;timestamp;P1;durP1;ratioP1;P2;durP2;ratioP2
13445;SDS011;6795;51.232;3.764;2023-03-01T00:01:45;15.03;;;11.87;;
13445;SDS011;6795;51.232;3.764;2023-03-01T00:04:16;13.33;;;11.93;;
13445;SDS011;6795;51.232;3.764;2023-03-01T00:06:44;12.97;;;11.57;;
13445;SDS011;6795;51.232;3.764;2023-03-01T00:09:14;12.93;;;11.60;;
13445;SDS011;6795;51.232;3.764;2023-03-01T00:11:43;12.83;;;11.53;;
13445;SDS011;6795;51.232;3.764;2023-03-01T00:14:12;13.60;;;12.30;;
13445;SDS011;6795;51.232;3.764;2023-03-01T00:16:42;12.67;;;11.47;;
13445;SDS011;6795;51.232;3.764;2023-03-01T00:19:12;12.80;;;11.37;;
13445;SDS011;6795;51.232;3.764;2023-03-01T00:21:44;11.97;;;10.67;;
13445;SDS011;6795;51.232;3.764;2023-03-01T00:24:13;12.90;;;11.53;;
13445;SDS011;6795;51.232;3.764;2023-03-01T00:26:42;13.80;;;11.60;;
13445;SDS011;6795;51.232;3.764;2023-03-01T00:29:10;13.73;;;12.20;;
13445;SDS011;6795;51.232;3.764;2023-03-01T00:31:39;12.90;;;11.70;;
13445;SDS011;6795;51.232;3.764;2023-03-01T00:34:08;13.67;;;11.60;;
13445;SDS011;6795;51.232;3.764;2023-03-01T00:36:37;13.63;;;12.27;;
13445;SDS011;6795;51.232;3.764;2023-03-01T00:39:10;16.57;;;13.07;;
13445;SDS011;6795;51.232;3.764;2023-03-01T00:41:40;15.93;;;14.37;;
13445;SDS011;6795;51.232;3.764;2023-03-01T00:44:08;16.20;;;14.50;;
13445;SDS011;6795;51.232;3.764;2023-03-01T00:46:38;16.03;;;14.53;;
13445;SDS011;6795;51.232;3.764;2023-03-01T00:49:06;15.63;;;14.07;;
13445;SDS011;6795;51.232;3.764;2023-03-01T00:51:35;15.73;;;14.13;;
13445;SDS011;6795;51.232;3.764;2023-03-01T00:54:05;16.37;;;14.70;;
13445;SDS011;6795;51.232;3.764;2023-03-01T00:56:34;18.13;;;15.63;;
13445;SDS011;6795;51.232;3.764;2023-03-01T00:59:03;18.83;;;16.93;;
13445;SDS011;6795;51.232;3.764;2023-03-01T01:01:31;19.20;;;17.03;;
13445;SDS011;6795;51.232;3.764;2023-03-01T01:04:00;21.25;;;18.73;;
13445;SDS011;6795;51.232;3.764;2023-03-01T01:06:33;21.23;;;18.77;;
13445;SDS011;6795;51.232;3.764;2023-03-01T01:09:04;20.23;;;18.20;;
13445;SDS011;6795;51.232;3.764;2023-03-01T01:11:35;22.77;;;19.27;;
13445;SDS011;6795;51.232;3.764;2023-03-01T01:14:04;23.10;;;19.03;;
13445;SDS011;6795;51.232;3.764;2023-03-01T01:16:33;20.97;;;18.67;;
13445;SDS011;6795;51.232;3.764;2023-03-01T01:19:02;26.17;;;20.83;;
13445;SDS011;6795;51.232;3.764;2023-03-01T01:21:31;26.17;;;20.57;;
13445;SDS011;6795;51.232;3.764;2023-03-01T01:24:02;26.03;;;22.50;;
13445;SDS011;6795;51.232;3.764;2023-03-01T01:26:31;25.90;;;21.70;;
13445;SDS011;6795;51.232;3.764;2023-03-01T01:29:03;29.23;;;24.70;;
13445;SDS011;6795;51.232;3.764;2023-03-01T01:31:32;32.23;;;25.47;;
13445;SDS011;6795;51.232;3.764;2023-03-01T01:34:03;32.67;;;25.73;;
13445;SDS011;6795;51.232;3.764;2023-03-01T01:36:33;32.77;;;26.23;;
13445;SDS011;6795;51.232;3.764;2023-03-01T01:39:03;33.00;;;26.20;;
13445;SDS011;6795;51.232;3.764;2023-03-01T01:41:32;33.63;;;26.57;;
13445;SDS011;6795;51.232;3.764;2023-03-01T01:44:13;32.00;;;26.77;;
13445;SDS011;6795;51.232;3.764;2023-03-01T01:46:44;35.73;;;27.57;;
13445;SDS011;6795;51.232;3.764;2023-03-01T01:49:17;40.03;;;29.23;;
13445;SDS011;6795;51.232;3.764;2023-03-01T01:51:53;39.00;;;29.07;;
13445;SDS011;6795;51.232;3.764;2023-03-01T01:54:29;37.17;;;28.73;;
13445;SDS011;6795;51.232;3.764;2023-03-01T01:57:06;36.40;;;29.63;;
13445;SDS011;6795;51.232;3.764;2023-03-01T01:59:40;37.03;;;29.03;;
13445;SDS011;6795;51.232;3.764;2023-03-01T02:02:13;38.53;;;29.73;;
13445;SDS011;6795;51.232;3.764;2023-03-01T02:04:42;42.70;;;30.27;;
13445;SDS011;6795;51.232;3.764;2023-03-01T02:07:13;37.90;;;29.87;;
13445;SDS011;6795;51.232;3.764;2023-03-01T02:09:45;35.80;;;29.23;;
13445;SDS011;6795;51.232;3.764;2023-03-01T02:12:16;41.10;;;28.87;;
13445;SDS011;6795;51.232;3.764;2023-03-01T02:14:47;42.33;;;30.50;;
13445;SDS011;6795;51.232;3.764;2023-03-01T02:17:16;37.63;;;29.87;;
13445;SDS011;6795;51.232;3.764;2023-03-01T02:19:49;44.87;;;32.70;;
13445;SDS011;6795;51.232;3.764;2023-03-01T02:22:27;41.27;;;30.67;;
13445;SDS011;6795;51.232;3.764;2023-03-01T02:25:01;44.63;;;32.23;;
13445;SDS011;6795;51.232;3.764;2023-03-01T02:27:40;44.60;;;33.97;;
13445;SDS011;6795;51.232;3.764;2023-03-01T02:30:18;46.47;;;33.80;;
13445;SDS011;6795;51.232;3.764;2023-03-01T02:32:48;44.27;;;34.23;;
13445;SDS011;6795;51.232;3.764;2023-03-01T02:35:18;46.87;;;34.20;;
13445;SDS011;6795;51.232;3.764;2023-03-01T02:37:48;43.93;;;32.87;;
13445;SDS011;6795;51.232;3.764;2023-03-01T02:40:17;44.67;;;33.80;;
13445;SDS011;6795;51.232;3.764;2023-03-01T02:42:49;43.58;;;33.35;;
13445;SDS011;6795;51.232;3.764;2023-03-01T02:45:23;46.20;;;34.17;;
13445;SDS011;6795;51.232;3.764;2023-03-01T02:47:53;44.53;;;33.67;;
13445;SDS011;6795;51.232;3.764;2023-03-01T02:50:25;46.37;;;35.10;;
13445;SDS011;6795;51.232;3.764;2023-03-01T02:53:13;49.00;;;35.10;;
13445;SDS011;6795;51.232;3.764;2023-03-01T02:55:44;51.37;;;35.30;;
13445;SDS011;6795;51.232;3.764;2023-03-01T02:58:13;52.33;;;36.00;;
13445;SDS011;6795;51.232;3.764;2023-03-01T03:00:43;54.50;;;36.23;;
13445;SDS011;6795;51.232;3.764;2023-03-01T03:03:13;48.97;;;35.07;;
13445;SDS011;6795;51.232;3.764;2023-03-01T03:05:44;51.13;;;35.37;;
13445;SDS011;6795;51.232;3.764;2023-03-01T03:08:14;51.07;;;36.23;;
13445;SDS011;6795;51.232;3.764;2023-03-01T03:10:51;52.60;;;36.73;;
13445;SDS011;6795;51.232;3.764;2023-03-01T03:13:19;51.00;;;36.27;;
13445;SDS011;6795;51.232;3.764;2023-03-01T03:15:50;51.40;;;35.80;;
13445;SDS011;6795;51.232;3.764;2023-03-01T03:18:18;53.33;;;35.60;;
13445;SDS011;6795;51.232;3.764;2023-03-01T03:20:47;49.00;;;35.47;;
13445;SDS011;6795;51.232;3.764;2023-03-01T03:23:19;53.47;;;35.87;;
13445;SDS011;6795;51.232;3.764;2023-03-01T03:25:49;53.00;;;35.27;;
13445;SDS011;6795;51.232;3.764;2023-03-01T03:28:18;50.70;;;35.30;;
13445;SDS011;6795;51.232;3.764;2023-03-01T03:30:46;53.83;;;36.00;;
13445;SDS011;6795;51.232;3.764;2023-03-01T03:33:17;50.47;;;37.10;;
13445;SDS011;6795;51.232;3.764;2023-03-01T03:35:46;51.33;;;35.47;;
13445;SDS011;6795;51.232;3.764;2023-03-01T03:38:16;52.20;;;37.10;;
13445;SDS011;6795;51.232;3.764;2023-03-01T03:40:49;53.83;;;37.80;;
13445;SDS011;6795;51.232;3.764;2023-03-01T03:43:19;52.27;;;38.07;;
13445;SDS011;6795;51.232;3.764;2023-03-01T03:45:50;54.37;;;37.37;;
13445;SDS011;6795;51.232;3.764;2023-03-01T03:48:20;50.60;;;36.37;;
13445;SDS011;6795;51.232;3.764;2023-03-01T03:50:49;53.07;;;37.80;;
13445;SDS011;6795;51.232;3.764;2023-03-01T03:53:19;54.73;;;37.07;;
13445;SDS011;6795;51.232;3.764;2023-03-01T03:55:48;49.97;;;36.83;;
13445;SDS011;6795;51.232;3.764;2023-03-01T03:58:18;52.93;;;36.60;;
13445;SDS011;6795;51.232;3.764;2023-03-01T04:00:50;46.93;;;35.53;;
13445;SDS011;6795;51.232;3.764;2023-03-01T04:03:22;46.70;;;34.27;;
13445;SDS011;6795;51.232;3.764;2023-03-01T04:05:51;50.47;;;36.23;;
13445;SDS011;6795;51.232;3.764;2023-03-01T04:08:21;54.37;;;36.67;;
13445;SDS011;6795;51.232;3.764;2023-03-01T04:10:51;51.10;;;35.80;;
13445;SDS011;6795;51.232;3.764;2023-03-01T04:13:26;54.13;;;37.27;;
13445;SDS011;6795;51.232;3.764;2023-03-01T04:15:54;54.57;;;37.37;;
13445;SDS011;6795;51.232;3.764;2023-03-01T04:18:24;54.13;;;37.27;;
13445;SDS011;6795;51.232;3.764;2023-03-01T04:20:53;55.47;;;37.70;;
13445;SDS011;6795;51.232;3.764;2023-03-01T04:23:22;58.07;;;37.50;;
13445;SDS011;6795;51.232;3.764;2023-03-01T04:25:51;52.27;;;35.83;;
13445;SDS011;6795;51.232;3.764;2023-03-01T04:28:22;54.00;;;35.83;;
13445;SDS011;6795;51.232;3.764;2023-03-01T04:30:52;51.17;;;34.17;;
13445;SDS011;6795;51.232;3.764;2023-03-01T04:33:21;54.70;;;33.00;;
13445;SDS011;6795;51.232;3.764;2023-03-01T04:35:52;51.63;;;32.33;;
13445;SDS011;6795;51.232;3.764;2023-03-01T04:38:20;51.87;;;33.40;;
13445;SDS011;6795;51.232;3.764;2023-03-01T04:40:49;55.77;;;34.23;;
13445;SDS011;6795;51.232;3.764;2023-03-01T04:43:17;55.40;;;30.60;;
13445;SDS011;6795;51.232;3.764;2023-03-01T04:45:45;51.23;;;33.07;;
13445;SDS011;6795;51.232;3.764;2023-03-01T04:48:14;49.27;;;31.27;;
13445;SDS011;6795;51.232;3.764;2023-03-01T04:50:42;50.50;;;32.73;;
13445;SDS011;6795;51.232;3.764;2023-03-01T04:53:12;52.73;;;32.37;;
13445;SDS011;6795;51.232;3.764;2023-03-01T04:55:40;47.63;;;30.80;;
13445;SDS011;6795;51.232;3.764;2023-03-01T04:58:09;44.50;;;28.97;;
13445;SDS011;6795;51.232;3.764;2023-03-01T05:00:37;39.53;;;27.53;;
13445;SDS011;6795;51.232;3.764;2023-03-01T05:03:06;36.67;;;26.77;;
13445;SDS011;6795;51.232;3.764;2023-03-01T05:05:36;36.10;;;24.77;;
13445;SDS011;6795;51.232;3.764;2023-03-01T05:08:06;37.60;;;26.37;;
13445;SDS011;6795;51.232;3.764;2023-03-01T05:10:45;37.57;;;26.47;;
13445;SDS011;6795;51.232;3.764;2023-03-01T05:13:15;32.40;;;25.10;;
13445;SDS011;6795;51.232;3.764;2023-03-01T05:15:48;36.97;;;26.07;;
13445;SDS011;6795;51.232;3.764;2023-03-01T05:18:22;31.70;;;24.27;;
13445;SDS011;6795;51.232;3.764;2023-03-01T05:20:52;33.43;;;24.53;;
13445;SDS011;6795;51.232;3.764;2023-03-01T05:23:25;35.80;;;25.55;;
13445;SDS011;6795;51.232;3.764;2023-03-01T05:25:56;29.83;;;24.93;;
13445;SDS011;6795;51.232;3.764;2023-03-01T05:28:26;30.60;;;24.17;;
13445;SDS011;6795;51.232;3.764;2023-03-01T05:30:56;33.53;;;24.37;;
13445;SDS011;6795;51.232;3.764;2023-03-01T05:33:25;28.47;;;23.67;;
13445;SDS011;6795;51.232;3.764;2023-03-01T05:35:54;26.70;;;22.10;;
13445;SDS011;6795;51.232;3.764;2023-03-01T05:38:27;30.47;;;24.67;;
13445;SDS011;6795;51.232;3.764;2023-03-01T05:40:57;32.27;;;23.67;;
13445;SDS011;6795;51.232;3.764;2023-03-01T05:43:25;28.10;;;22.40;;
13445;SDS011;6795;51.232;3.764;2023-03-01T05:45:57;27.70;;;21.87;;
13445;SDS011;6795;51.232;3.764;2023-03-01T05:48:26;26.92;;;22.20;;
13445;SDS011;6795;51.232;3.764;2023-03-01T05:50:54;29.60;;;22.63;;
13445;SDS011;6795;51.232;3.764;2023-03-01T05:53:28;29.00;;;22.63;;
13445;SDS011;6795;51.232;3.764;2023-03-01T05:55:58;26.33;;;21.40;;
13445;SDS011;6795;51.232;3.764;2023-03-01T05:58:26;24.83;;;21.07;;
13445;SDS011;6795;51.232;3.764;2023-03-01T06:00:55;24.80;;;21.07;;
13445;SDS011;6795;51.232;3.764;2023-03-01T06:03:23;25.07;;;20.17;;
13445;SDS011;6795;51.232;3.764;2023-03-01T06:05:56;24.63;;;20.40;;
13445;SDS011;6795;51.232;3.764;2023-03-01T06:08:25;24.13;;;19.07;;
13445;SDS011;6795;51.232;3.764;2023-03-01T06:10:54;23.87;;;21.10;;
13445;SDS011;6795;51.232;3.764;2023-03-01T06:13:24;24.87;;;20.70;;
13445;SDS011;6795;51.232;3.764;2023-03-01T06:15:55;29.07;;;19.57;;
13445;SDS011;6795;51.232;3.764;2023-03-01T06:18:24;25.20;;;20.43;;
13445;SDS011;6795;51.232;3.764;2023-03-01T06:20:53;25.30;;;20.20;;
13445;SDS011;6795;51.232;3.764;2023-03-01T06:23:22;22.83;;;18.07;;
13445;SDS011;6795;51.232;3.764;2023-03-01T06:25:51;24.50;;;20.50;;
13445;SDS011;6795;51.232;3.764;2023-03-01T06:28:19;24.37;;;19.30;;
13445;SDS011;6795;51.232;3.764;2023-03-01T06:30:49;22.83;;;18.77;;
13445;SDS011;6795;51.232;3.764;2023-03-01T06:33:19;22.87;;;18.70;;
13445;SDS011;6795;51.232;3.764;2023-03-01T06:35:50;22.30;;;18.50;;
13445;SDS011;6795;51.232;3.764;2023-03-01T06:38:18;22.57;;;18.37;;
13445;SDS011;6795;51.232;3.764;2023-03-01T06:40:51;26.30;;;19.70;;
13445;SDS011;6795;51.232;3.764;2023-03-01T06:43:20;22.23;;;18.20;;
13445;SDS011;6795;51.232;3.764;2023-03-01T06:45:51;25.50;;;19.03;;
13445;SDS011;6795;51.232;3.764;2023-03-01T06:48:20;24.83;;;18.47;;
13445;SDS011;6795;51.232;3.764;2023-03-01T06:50:48;26.13;;;18.63;;
13445;SDS011;6795;51.232;3.764;2023-03-01T06:53:17;25.47;;;18.13;;
13445;SDS011;6795;51.232;3.764;2023-03-01T06:55:45;28.37;;;19.33;;
13445;SDS011;6795;51.232;3.764;2023-03-01T06:58:14;24.97;;;17.97;;
13445;SDS011;6795;51.232;3.764;2023-03-01T07:00:42;21.70;;;17.47;;
13445;SDS011;6795;51.232;3.764;2023-03-01T07:03:12;23.07;;;18.27;;
13445;SDS011;6795;51.232;3.764;2023-03-01T07:05:40;19.07;;;16.70;;
13445;SDS011;6795;51.232;3.764;2023-03-01T07:08:09;23.20;;;15.80;;
13445;SDS011;6795;51.232;3.764;2023-03-01T07:10:39;19.97;;;15.10;;
13445;SDS011;6795;51.232;3.764;2023-03-01T07:13:07;18.77;;;14.13;;
13445;SDS011;6795;51.232;3.764;2023-03-01T07:15:36;23.20;;;14.30;;
13445;SDS011;6795;51.232;3.764;2023-03-01T07:18:04;14.77;;;13.10;;
13445;SDS011;6795;51.232;3.764;2023-03-01T07:20:34;13.10;;;11.70;;
13445;SDS011;6795;51.232;3.764;2023-03-01T07:23:03;14.63;;;11.03;;
13445;SDS011;6795;51.232;3.764;2023-03-01T07:25:34;13.18;;;11.73;;
13445;SDS011;6795;51.232;3.764;2023-03-01T07:28:03;12.67;;;10.43;;
13445;SDS011;6795;51.232;3.764;2023-03-01T07:30:31;11.67;;;10.23;;
13445;SDS011;6795;51.232;3.764;2023-03-01T07:33:01;11.15;;;9.82;;
13445;SDS011;6795;51.232;3.764;2023-03-01T07:35:29;9.20;;;8.37;;
13445;SDS011;6795;51.232;3.764;2023-03-01T07:38:01;10.47;;;9.47;;
13445;SDS011;6795;51.232;3.764;2023-03-01T07:40:30;10.27;;;9.02;;
13445;SDS011;6795;51.232;3.764;2023-03-01T07:42:58;10.25;;;8.20;;
13445;SDS011;6795;51.232;3.764;2023-03-01T07:45:28;9.63;;;7.70;;
13445;SDS011;6795;51.232;3.764;2023-03-01T07:47:57;9.52;;;7.65;;
13445;SDS011;6795;51.232;3.764;2023-03-01T07:50:26;7.18;;;6.53;;
13445;SDS011;6795;51.232;3.764;2023-03-01T07:52:55;9.70;;;6.72;;
13445;SDS011;6795;51.232;3.764;2023-03-01T07:55:24;8.90;;;7.93;;
13445;SDS011;6795;51.232;3.764;2023-03-01T07:57:53;7.85;;;6.78;;
13445;SDS011;6795;51.232;3.764;2023-03-01T08:00:21;7.60;;;6.80;;
13445;SDS011;6795;51.232;3.764;2023-03-01T08:02:50;7.35;;;6.75;;
13445;SDS011;6795;51.232;3.764;2023-03-01T08:05:18;6.85;;;6.13;;
13445;SDS011;6795;51.232;3.764;2023-03-01T08:07:48;6.68;;;6.05;;
13445;SDS011;6795;51.232;3.764;2023-03-01T08:10:17;7.18;;;6.15;;
13445;SDS011;6795;51.232;3.764;2023-03-01T08:12:47;5.88;;;5.35;;
13445;SDS011;6795;51.232;3.764;2023-03-01T08:15:15;6.18;;;5.57;;
13445;SDS011;6795;51.232;3.764;2023-03-01T08:17:45;7.18;;;5.93;;
13445;SDS011;6795;51.232;3.764;2023-03-01T08:20:16;9.88;;;5.70;;
13445;SDS011;6795;51.232;3.764;2023-03-01T08:22:45;5.90;;;4.82;;
13445;SDS011;6795;51.232;3.764;2023-03-01T08:25:14;6.97;;;6.03;;
13445;SDS011;6795;51.232;3.764;2023-03-01T08:27:42;10.93;;;6.90;;
13445;SDS011;6795;51.232;3.764;2023-03-01T08:30:12;8.32;;;5.97;;
13445;SDS011;6795;51.232;3.764;2023-03-01T08:32:41;13.55;;;7.88;;
13445;SDS011;6795;51.232;3.764;2023-03-01T08:35:10;10.57;;;8.60;;
13445;SDS011;6795;51.232;3.764;2023-03-01T08:37:39;12.65;;;8.73;;
13445;SDS011;6795;51.232;3.764;2023-03-01T08:40:08;9.50;;;7.82;;
13445;SDS011;6795;51.232;3.764;2023-03-01T08:42:40;4.47;;;4.07;;
13445;SDS011;6795;51.232;3.764;2023-03-01T08:45:09;6.63;;;4.78;;
13445;SDS011;6795;51.232;3.764;2023-03-01T08:47:40;5.40;;;4.78;;
13445;SDS011;6795;51.232;3.764;2023-03-01T08:50:09;4.63;;;4.22;;
13445;SDS011;6795;51.232;3.764;2023-03-01T08:52:38;17.77;;;4.80;;
13445;SDS011;6795;51.232;3.764;2023-03-01T08:55:07;5.95;;;3.90;;
13445;SDS011;6795;51.232;3.764;2023-03-01T08:57:36;8.60;;;4.13;;
13445;SDS011;6795;51.232;3.764;2023-03-01T09:00:05;6.50;;;4.60;;
13445;SDS011;6795;51.232;3.764;2023-03-01T09:02:37;3.97;;;2.67;;
13445;SDS011;6795;51.232;3.764;2023-03-01T09:05:06;5.90;;;4.40;;
13445;SDS011;6795;51.232;3.764;2023-03-01T09:07:35;10.60;;;4.45;;
13445;SDS011;6795;51.232;3.764;2023-03-01T09:10:04;8.80;;;5.18;;
13445;SDS011;6795;51.232;3.764;2023-03-01T09:12:33;4.60;;;3.70;;
13445;SDS011;6795;51.232;3.764;2023-03-01T09:15:02;9.48;;;4.57;;
13445;SDS011;6795;51.232;3.764;2023-03-01T09:17:31;6.20;;;3.78;;
13445;SDS011;6795;51.232;3.764;2023-03-01T09:20:01;6.45;;;3.75;;
13445;SDS011;6795;51.232;3.764;2023-03-01T09:22:32;5.18;;;3.80;;
13445;SDS011;6795;51.232;3.764;2023-03-01T09:25:02;7.68;;;3.47;;
13445;SDS011;6795;51.232;3.764;2023-03-01T09:27:31;4.47;;;3.25;;
13445;SDS011;6795;51.232;3.764;2023-03-01T09:30:00;7.28;;;3.72;;
13445;SDS011;6795;51.232;3.764;2023-03-01T09:32:30;4.50;;;3.90;;
13445;SDS011;6795;51.232;3.764;2023-03-01T09:34:58;7.15;;;3.53;;
13445;SDS011;6795;51.232;3.764;2023-03-01T09:37:33;5.40;;;3.65;;
13445;SDS011;6795;51.232;3.764;2023-03-01T09:40:04;5.30;;;3.70;;
13445;SDS011;6795;51.232;3.764;2023-03-01T09:42:34;5.20;;;3.28;;
13445;SDS011;6795;51.232;3.764;2023-03-01T09:45:15;5.85;;;4.38;;
13445;SDS011;6795;51.232;3.764;2023-03-01T09:47:55;6.35;;;3.42;;
13445;SDS011;6795;51.232;3.764;2023-03-01T09:50:31;4.55;;;2.67;;
13445;SDS011;6795;51.232;3.764;2023-03-01T09:53:06;3.72;;;2.75;;
13445;SDS011;6795;51.232;3.764;2023-03-01T09:55:40;6.53;;;4.03;;
13445;SDS011;6795;51.232;3.764;2023-03-01T09:58:27;5.22;;;3.63;;
13445;SDS011;6795;51.232;3.764;2023-03-01T10:01:02;4.05;;;2.63;;
13445;SDS011;6795;51.232;3.764;2023-03-01T10:03:39;3.95;;;2.83;;
13445;SDS011;6795;51.232;3.764;2023-03-01T10:06:14;2.20;;;1.77;;
13445;SDS011;6795;51.232;3.764;2023-03-01T10:09:02;4.03;;;2.63;;
13445;SDS011;6795;51.232;3.764;2023-03-01T10:11:37;28.08;;;5.30;;
13445;SDS011;6795;51.232;3.764;2023-03-01T10:14:16;81.20;;;7.78;;
13445;SDS011;6795;51.232;3.764;2023-03-01T10:16:57;10.90;;;3.78;;
13445;SDS011;6795;51.232;3.764;2023-03-01T10:19:30;35.58;;;5.47;;
13445;SDS011;6795;51.232;3.764;2023-03-01T10:22:02;31.60;;;5.30;;
13445;SDS011;6795;51.232;3.764;2023-03-01T10:24:37;11.48;;;3.40;;
13445;SDS011;6795;51.232;3.764;2023-03-01T10:27:06;10.90;;;2.10;;
13445;SDS011;6795;51.232;3.764;2023-03-01T10:29:39;6.28;;;2.95;;
13445;SDS011;6795;51.232;3.764;2023-03-01T10:32:13;11.35;;;2.83;;
13445;SDS011;6795;51.232;3.764;2023-03-01T10:34:42;2.53;;;1.73;;
13445;SDS011;6795;51.232;3.764;2023-03-01T10:37:11;3.10;;;1.80;;
13445;SDS011;6795;51.232;3.764;2023-03-01T10:39:58;3.35;;;2.38;;
13445;SDS011;6795;51.232;3.764;2023-03-01T10:42:35;4.93;;;2.13;;
13445;SDS011;6795;51.232;3.764;2023-03-01T10:45:17;6.82;;;2.25;;
13445;SDS011;6795;51.232;3.764;2023-03-01T10:48:05;1.73;;;1.63;;
13445;SDS011;6795;51.232;3.764;2023-03-01T10:50:40;3.85;;;1.67;;
13445;SDS011;6795;51.232;3.764;2023-03-01T10:53:22;10.23;;;2.92;;
13445;SDS011;6795;51.232;3.764;2023-03-01T10:56:00;2.05;;;1.23;;
13445;SDS011;6795;51.232;3.764;2023-03-01T10:58:31;6.03;;;1.98;;
13445;SDS011;6795;51.232;3.764;2023-03-01T11:01:02;3.13;;;1.98;;
13445;SDS011;6795;51.232;3.764;2023-03-01T11:03:32;4.88;;;2.10;;
13445;SDS011;6795;51.232;3.764;2023-03-01T11:06:04;6.10;;;2.35;;
13445;SDS011;6795;51.232;3.764;2023-03-01T11:08:48;4.20;;;2.88;;
13445;SDS011;6795;51.232;3.764;2023-03-01T11:11:31;4.53;;;3.88;;
13445;SDS011;6795;51.232;3.764;2023-03-01T11:14:01;5.10;;;2.95;;
13445;SDS011;6795;51.232;3.764;2023-03-01T11:16:57;4.78;;;2.53;;
13445;SDS011;6795;51.232;3.764;2023-03-01T11:19:29;2.42;;;1.42;;
13445;SDS011;6795;51.232;3.764;2023-03-01T11:21:59;4.10;;;2.72;;
13445;SDS011;6795;51.232;3.764;2023-03-01T11:24:36;4.30;;;2.40;;
13445;SDS011;6795;51.232;3.764;2023-03-01T11:27:20;1.92;;;1.48;;
13445;SDS011;6795;51.232;3.764;2023-03-01T11:29:54;2.90;;;1.75;;
13445;SDS011;6795;51.232;3.764;2023-03-01T11:32:28;5.30;;;2.83;;
13445;SDS011;6795;51.232;3.764;2023-03-01T11:35:03;1.67;;;1.58;;
13445;SDS011;6795;51.232;3.764;2023-03-01T11:37:39;1.70;;;1.55;;
13445;SDS011;6795;51.232;3.764;2023-03-01T11:40:15;1.80;;;1.45;;
13445;SDS011;6795;51.232;3.764;2023-03-01T11:42:54;5.13;;;2.67;;
13445;SDS011;6795;51.232;3.764;2023-03-01T11:45:31;4.82;;;2.25;;
13445;SDS011;6795;51.232;3.764;2023-03-01T11:48:38;2.80;;;1.50;;
13445;SDS011;6795;51.232;3.764;2023-03-01T11:51:18;5.70;;;1.58;;
13445;SDS011;6795;51.232;3.764;2023-03-01T11:54:03;2.97;;;1.60;;
13445;SDS011;6795;51.232;3.764;2023-03-01T11:56:41;4.30;;;2.03;;
13445;SDS011;6795;51.232;3.764;2023-03-01T11:59:25;3.42;;;1.13;;
13445;SDS011;6795;51.232;3.764;2023-03-01T12:02:18;3.35;;;2.25;;
13445;SDS011;6795;51.232;3.764;2023-03-01T12:05:07;6.47;;;1.60;;
13445;SDS011;6795;51.232;3.764;2023-03-01T12:07:56;2.13;;;1.55;;
13445;SDS011;6795;51.232;3.764;2023-03-01T12:10:35;4.80;;;1.98;;
13445;SDS011;6795;51.232;3.764;2023-03-01T12:13:16;2.65;;;1.40;;
13445;SDS011;6795;51.232;3.764;2023-03-01T12:19:21;2.90;;;2.60;;
13445;SDS011;6795;51.232;3.764;2023-03-01T12:22:15;2.50;;;1.77;;
13445;SDS011;6795;51.232;3.764;2023-03-01T12:27:56;2.50;;;1.70;;
13445;SDS011;6795;51.232;3.764;2023-03-01T12:30:41;21.17;;;3.30;;
13445;SDS011;6795;51.232;3.764;2023-03-01T12:33:22;10.20;;;2.22;;
13445;SDS011;6795;51.232;3.764;2023-03-01T12:36:10;4.85;;;1.70;;
13445;SDS011;6795;51.232;3.764;2023-03-01T12:38:56;3.78;;;1.27;;
13445;SDS011;6795;51.232;3.764;2023-03-01T12:41:43;9.25;;;2.80;;
13445;SDS011;6795;51.232;3.764;2023-03-01T12:44:19;4.60;;;2.15;;
13445;SDS011;6795;51.232;3.764;2023-03-01T12:49:52;2.28;;;1.40;;
13445;SDS011;6795;51.232;3.764;2023-03-01T12:52:25;4.07;;;1.92;;
13445;SDS011;6795;51.232;3.764;2023-03-01T12:55:06;14.45;;;2.83;;
13445;SDS011;6795;51.232;3.764;2023-03-01T12:57:46;5.30;;;2.50;;
13445;SDS011;6795;51.232;3.764;2023-03-01T13:00:24;5.35;;;2.83;;
13445;SDS011;6795;51.232;3.764;2023-03-01T13:03:02;3.58;;;2.10;;
13445;SDS011;6795;51.232;3.764;2023-03-01T13:05:42;2.70;;;1.77;;
13445;SDS011;6795;51.232;3.764;2023-03-01T13:08:26;2.78;;;1.38;;
13445;SDS011;6795;51.232;3.764;2023-03-01T13:11:01;2.85;;;2.03;;
13445;SDS011;6795;51.232;3.764;2023-03-01T13:13:33;3.10;;;2.13;;
13445;SDS011;6795;51.232;3.764;2023-03-01T13:18:50;2.13;;;1.60;;
13445;SDS011;6795;51.232;3.764;2023-03-01T13:21:36;2.45;;;0.70;;
13445;SDS011;6795;51.232;3.764;2023-03-01T13:24:09;3.30;;;1.52;;
13445;SDS011;6795;51.232;3.764;2023-03-01T13:27:11;3.10;;;1.58;;
13445;SDS011;6795;51.232;3.764;2023-03-01T13:29:51;1.88;;;1.40;;
13445;SDS011;6795;51.232;3.764;2023-03-01T13:32:21;3.28;;;1.92;;
13445;SDS011;6795;51.232;3.764;2023-03-01T13:41:00;4.05;;;2.70;;
13445;SDS011;6795;51.232;3.764;2023-03-01T13:43:29;4.05;;;1.45;;
13445;SDS011;6795;51.232;3.764;2023-03-01T13:46:00;4.47;;;2.83;;
13445;SDS011;6795;51.232;3.764;2023-03-01T13:48:30;3.17;;;2.38;;
13445;SDS011;6795;51.232;3.764;2023-03-01T13:50:59;5.80;;;2.45;;
13445;SDS011;6795;51.232;3.764;2023-03-01T13:53:33;5.45;;;2.78;;
13445;SDS011;6795;51.232;3.764;2023-03-01T13:56:07;3.45;;;1.23;;
13445;SDS011;6795;51.232;3.764;2023-03-01T13:58:46;1.85;;;1.48;;
13445;SDS011;6795;51.232;3.764;2023-03-01T14:01:21;2.03;;;1.58;;
13445;SDS011;6795;51.232;3.764;2023-03-01T14:03:52;2.83;;;1.38;;
13445;SDS011;6795;51.232;3.764;2023-03-01T14:06:23;4.05;;;2.55;;
13445;SDS011;6795;51.232;3.764;2023-03-01T14:09:00;4.05;;;2.15;;
13445;SDS011;6795;51.232;3.764;2023-03-01T14:14:46;2.33;;;2.03;;
13445;SDS011;6795;51.232;3.764;2023-03-01T14:17:23;7.15;;;2.67;;
13445;SDS011;6795;51.232;3.764;2023-03-01T14:20:18;2.85;;;1.52;;
13445;SDS011;6795;51.232;3.764;2023-03-01T14:22:48;3.03;;;1.80;;
13445;SDS011;6795;51.232;3.764;2023-03-01T14:25:21;6.00;;;2.25;;
13445;SDS011;6795;51.232;3.764;2023-03-01T14:27:54;3.75;;;2.47;;
13445;SDS011;6795;51.232;3.764;2023-03-01T14:30:32;3.80;;;2.35;;
13445;SDS011;6795;51.232;3.764;2023-03-01T14:33:05;3.60;;;1.73;;
13445;SDS011;6795;51.232;3.764;2023-03-01T14:35:51;9.00;;;2.60;;
13445;SDS011;6795;51.232;3.764;2023-03-01T14:38:21;2.05;;;1.10;;
13445;SDS011;6795;51.232;3.764;2023-03-01T14:40:51;5.10;;;1.80;;
13445;SDS011;6795;51.232;3.764;2023-03-01T14:43:26;3.05;;;1.63;;
13445;SDS011;6795;51.232;3.764;2023-03-01T14:45:56;2.75;;;1.48;;
13445;SDS011;6795;51.232;3.764;2023-03-01T14:48:26;1.50;;;1.17;;
13445;SDS011;6795;51.232;3.764;2023-03-01T14:50:56;3.33;;;1.48;;
13445;SDS011;6795;51.232;3.764;2023-03-01T14:53:27;2.45;;;2.05;;
13445;SDS011;6795;51.232;3.764;2023-03-01T14:56:05;4.13;;;2.65;;
13445;SDS011;6795;51.232;3.764;2023-03-01T14:58:42;6.90;;;1.85;;
13445;SDS011;6795;51.232;3.764;2023-03-01T15:01:12;3.50;;;2.45;;
13445;SDS011;6795;51.232;3.764;2023-03-01T15:03:44;1.90;;;1.73;;
13445;SDS011;6795;51.232;3.764;2023-03-01T15:06:15;2.40;;;1.27;;
13445;SDS011;6795;51.232;3.764;2023-03-01T15:08:46;10.10;;;2.45;;
13445;SDS011;6795;51.232;3.764;2023-03-01T15:11:19;5.78;;;2.70;;
13445;SDS011;6795;51.232;3.764;2023-03-01T15:13:52;2.55;;;1.48;;
13445;SDS011;6795;51.232;3.764;2023-03-01T15:16:22;2.35;;;2.13;;
13445;SDS011;6795;51.232;3.764;2023-03-01T15:18:54;7.97;;;2.75;;
13445;SDS011;6795;51.232;3.764;2023-03-01T15:21:24;2.83;;;2.42;;
13445;SDS011;6795;51.232;3.764;2023-03-01T15:23:56;4.78;;;3.35;;
13445;SDS011;6795;51.232;3.764;2023-03-01T15:26:28;2.88;;;2.22;;
13445;SDS011;6795;51.232;3.764;2023-03-01T15:29:00;4.70;;;3.28;;
13445;SDS011;6795;51.232;3.764;2023-03-01T15:31:29;2.00;;;1.80;;
13445;SDS011;6795;51.232;3.764;2023-03-01T15:34:09;6.53;;;4.13;;
13445;SDS011;6795;51.232;3.764;2023-03-01T15:36:48;5.93;;;3.03;;
13445;SDS011;6795;51.232;3.764;2023-03-01T15:42:10;2.95;;;2.55;;
13445;SDS011;6795;51.232;3.764;2023-03-01T15:44:44;3.25;;;2.92;;